Time;durP1;ratioP1;P1;durP2;ratioP2;P2;SDS_P1;SDS_P2;PMS_P1;PMS_P2;Temp;Humidity;BMP_temperature;BMP_pressure;BME280_temperature;BME280_humidity;BME280_pressure;Samples;Min_cycle;Max_cycle;Signal;HPM_P1;HPM_P2
2022/04/02 00:02:45;;;;;;;1999.90;999.90;;;;;;;2.78;49.45;100562.28;15433962;28;20055;-61
2022/04/02 00:10:20;;;;;;;1999.90;999.90;;;;;;;2.71;50.06;100561.78;15432681;28;20238;-61
2022/04/02 00:17:52;;;;;;;;;;;;;;;2.62;49.98;100560.72;15448157;28;20109;-61
2022/04/02 00:25:28;;;;;;;1999.90;999.90;;;;;;;2.49;50.74;100556.66;15432538;28;19922;-60
2022/04/02 00:33:02;;;;;;;1999.90;999.90;;;;;;;2.31;51.32;100551.81;15432484;28;20055;-60
2022/04/02 00:40:37;;;;;;;1999.90;999.90;;;;;;;2.40;51.38;100547.34;15447183;28;20523;-60
2022/04/02 00:48:10;;;;;;;1999.90;999.90;;;;;;;2.38;52.23;100552.28;15414061;28;20125;-61
2022/04/02 00:55:43;;;;;;;1999.90;999.90;;;;;;;2.19;52.85;100552.13;15429627;28;20047;-58
2022/04/02 01:03:21;;;;;;;;;;;;;;;2.31;52.99;100563.63;15407694;28;20051;-61
2022/04/02 01:10:58;;;;;;;1999.90;999.90;;;;;;;2.09;54.04;100576.13;15401674;28;19986;-60
2022/04/02 01:18:32;;;;;;;1999.90;999.90;;;;;;;2.10;54.09;100583.25;15427890;28;20567;-60
2022/04/02 01:26:06;;;;;;;1999.90;999.90;;;;;;;2.27;54.28;100586.50;15411383;28;20504;-61
2022/04/02 01:33:44;;;;;;;1999.90;999.90;;;;;;;2.37;54.51;100591.13;15427201;28;20050;-60
2022/04/02 01:41:19;;;;;;;1999.90;999.90;;;;;;;2.39;54.58;100589.75;15426957;28;20035;-61
2022/04/02 01:48:53;;;;;;;1999.90;999.90;;;;;;;2.31;55.38;100577.41;15427415;28;20476;-61
2022/04/02 01:56:27;;;;;;;1999.90;999.90;;;;;;;2.45;54.98;100579.53;15428068;28;20188;-60
2022/04/02 02:04:04;;;;;;;1999.90;999.90;;;;;;;2.42;55.37;100585.63;15409022;28;20089;-60
2022/04/02 02:11:38;;;;;;;1999.90;999.90;;;;;;;2.45;55.23;100585.88;15426119;28;20126;-61
2022/04/02 02:19:36;;;;;;;1999.90;999.90;;;;;;;2.42;56.37;100580.94;15427982;28;20466;-61
2022/04/02 02:27:10;;;;;;;1999.90;999.90;;;;;;;2.53;56.12;100579.78;15425538;28;20058;-61
2022/04/02 02:42:33;;;;;;;1999.90;999.90;;;;;;;2.81;56.33;100586.53;15425872;28;20051;-61
2022/04/02 02:50:42;;;;;;;1999.90;999.90;;;;;;;2.64;57.08;100585.25;15424032;28;20054;-61
2022/04/02 02:58:21;;;;;;;1999.90;999.90;;;;;;;2.51;57.63;100583.94;15408448;28;20054;-59
2022/04/02 03:05:53;;;;;;;;;;;;;;;2.70;57.50;100578.56;15424643;28;20532;-61
2022/04/02 03:13:34;;;;;;;1999.90;999.90;;;;;;;2.69;57.86;100586.03;15441069;28;20024;-61
2022/04/02 03:21:20;;;;;;;1999.90;999.90;;;;;;;2.61;58.22;100589.41;15435806;28;20043;-58
2022/04/02 03:28:54;;;;;;;1999.90;999.90;;;;;;;2.42;58.92;100594.72;15349852;28;20051;-59
2022/04/02 03:36:31;;;;;;;1999.90;999.90;;;;;;;2.65;58.41;100597.91;15435186;28;20183;-60
2022/04/02 03:44:08;;;;;;;1999.90;999.90;;;;;;;2.48;58.44;100603.75;15417751;28;20146;-60
2022/04/02 03:51:41;;;;;;;1999.90;999.90;;;;;;;2.57;58.31;100611.16;15463966;22;20050;-57
2022/04/02 03:59:20;;;;;;;1999.90;999.90;;;;;;;2.47;58.88;100613.13;15583249;28;20466;-59
2022/04/02 04:07:00;;;;;;;1999.90;999.90;;;;;;;2.30;59.15;100627.25;15537989;28;20050;-58
2022/04/02 04:14:35;;;;;;;1999.90;999.90;;;;;;;2.51;58.92;100633.50;15498947;28;20046;-57
2022/04/02 04:22:10;;;;;;;;;;;;;;;2.71;58.39;100627.91;15504931;28;20042;-56
2022/04/02 04:29:48;;;;;;;1999.90;999.90;;;;;;;2.45;59.29;100643.72;15513246;28;19922;-58
2022/04/02 04:37:22;;;;;;;1999.90;999.90;;;;;;;2.48;59.27;100653.34;15502465;28;20092;-58
2022/04/02 04:44:56;;;;;;;1999.90;999.90;;;;;;;2.58;59.29;100667.91;15559423;28;20096;-59
2022/04/02 04:52:35;;;;;;;1999.90;999.90;;;;;;;2.44;59.87;100663.28;15560768;28;20084;-60
2022/04/02 05:00:18;;;;;;;1999.90;999.90;;;;;;;2.45;59.94;100673.19;15559304;28;20049;-59
2022/04/02 05:07:54;;;;;;;1999.90;999.90;;;;;;;2.64;59.07;100676.16;15554274;28;20045;-59
2022/04/02 05:15:30;;;;;;;1999.90;999.90;;;;;;;2.80;59.34;100674.97;15537456;28;20051;-56
2022/04/02 05:23:03;;;;;;;1999.90;999.90;;;;;;;2.84;58.95;100698.94;15555155;28;20068;-58
2022/04/02 05:30:38;;;;;;;1999.90;999.90;;;;;;;3.03;58.61;100692.81;15554163;28;20038;-58
2022/04/02 05:38:13;;;;;;;1999.90;999.90;;;;;;;3.50;57.70;100710.72;15553341;28;20045;-58
2022/04/02 05:45:46;;;;;;;1999.90;999.90;;;;;;;3.41;57.50;100707.75;15554420;28;20069;-60
2022/04/02 05:53:19;;;;;;;1999.90;999.90;;;;;;;3.50;57.73;100724.53;15519806;28;1030056;-59
2022/04/02 06:00:55;;;;;;;1999.90;999.90;;;;;;;3.38;57.99;100725.69;15556962;28;20038;-59
2022/04/02 06:08:30;;;;;;;1999.90;999.90;;;;;;;3.51;57.59;100729.75;15555074;28;20099;-59
2022/04/02 06:16:06;;;;;;;1999.90;999.90;;;;;;;4.14;56.19;100740.88;15519257;28;20483;-60
2022/04/02 06:23:38;;;;;;;1999.90;999.90;;;;;;;4.12;55.53;100742.28;15495413;28;20038;-59
2022/04/02 06:31:14;;;;;;;1999.90;999.90;;;;;;;4.54;55.38;100759.00;15492774;28;20492;-58
2022/04/02 06:38:50;;;;;;;1999.90;999.90;;;;;;;5.04;54.38;100758.75;15507426;28;20052;-57
2022/04/02 06:46:24;;;;;;;1999.90;999.90;;;;;;;4.92;53.66;100775.75;15554263;28;20065;-61
2022/04/02 06:53:57;;;;;;;1999.90;999.90;;;;;;;5.50;52.84;100767.25;15546674;28;20046;-62
2022/04/02 07:01:31;;;;;;;1999.90;999.90;;;;;;;5.55;52.23;100767.19;15564303;28;20056;-59
2022/04/02 07:09:04;;;;;;;1999.90;999.90;;;;;;;5.82;51.01;100766.50;15532872;28;20651;-59
2022/04/02 07:16:39;;;;;;;1999.90;999.90;;;;;;;6.33;50.83;100769.31;15532310;28;20045;-59
2022/04/02 07:24:11;;;;;;;1999.90;999.90;;;;;;;7.00;48.27;100779.22;15564372;28;20050;-60
2022/04/02 07:31:49;;;;;;;1999.90;999.90;;;;;;;7.11;47.55;100788.97;15562599;28;20038;-59
2022/04/02 07:39:25;;;;;;;1999.90;999.90;;;;;;;6.20;49.65;100785.91;15561864;28;20506;-59
2022/04/02 07:47:00;;;;;;;1999.90;999.90;;;;;;;6.39;49.67;100788.66;15562381;28;20042;-58
2022/04/02 07:54:39;;;;;;;1999.90;999.90;;;;;;;5.87;50.83;100791.38;15563270;28;20084;-61
2022/04/02 08:10:02;;;;;;;1999.90;999.90;;;;;;;5.81;50.18;100809.19;15561574;28;20078;-60
2022/04/02 08:17:37;;;;;;;1999.90;999.90;;;;;;;5.90;51.61;100812.09;15560433;28;20519;-59
2022/04/02 08:25:10;;;;;;;1999.90;999.90;;;;;;;5.51;50.75;100810.41;15561191;28;20052;-60
2022/04/02 08:32:59;;;;;;;1999.90;999.90;;;;;;;5.80;50.52;100808.34;15542931;28;20046;-58
2022/04/02 08:41:24;;;;;;;1999.90;999.90;;;;;;;5.66;48.60;100820.47;15560565;28;20084;-55
2022/04/02 08:48:59;;;;;;;1999.90;999.90;;;;;;;5.60;46.73;100827.19;15556064;28;20100;-61
2022/04/02 08:56:38;;;;;;;1999.90;999.90;;;;;;;5.91;45.13;100828.44;15559416;28;20065;-59
2022/04/02 09:04:51;;;;;;;1999.90;999.90;;;;;;;5.97;44.08;100831.97;15529929;28;20046;-61
2022/04/02 09:12:35;;;;;;;1999.90;999.90;;;;;;;6.21;41.78;100834.66;15497737;28;20130;-58
2022/04/02 09:20:35;;;;;;;1999.90;999.90;;;;;;;6.76;39.57;100834.84;15496970;28;20133;-54
2022/04/02 09:28:25;;;;;;;1999.90;999.90;;;;;;;8.37;36.96;100849.25;15528191;28;20045;-59
2022/04/02 09:36:24;;;;;;;1999.90;999.90;;;;;;;9.34;35.57;100843.13;15495581;28;20050;-58
2022/04/02 09:44:33;;;;;;;1999.90;999.90;;;;;;;9.36;34.52;100833.28;15447993;28;20081;-63
2022/04/02 09:52:08;;;;;;;1999.90;999.90;;;;;;;11.38;32.26;100840.16;15439078;22;20644;-84
2022/04/02 09:59:58;;;;;;;1999.90;999.90;;;;;;;8.92;36.38;100850.94;15385482;28;20043;-82
2022/04/02 10:07:41;;;;;;;1999.90;999.90;;;;;;;9.77;35.01;100827.34;15398399;28;20043;-84
2022/04/02 10:15:14;;;;;;;1999.90;999.90;;;;;;;12.85;31.26;100823.13;15405254;28;20046;-82
2022/04/02 10:22:56;;;;;;;;;;;;;;;12.67;32.62;100844.03;15414856;28;20039;-84
2022/04/02 10:30:29;;;;;;;1999.90;999.90;;;;;;;9.66;33.87;100825.19;15422298;28;20408;-84
2022/04/02 10:38:08;;;;;;;1999.90;999.90;;;;;;;9.68;34.53;100822.91;15406489;28;20142;-83
2022/04/02 10:45:41;;;;;;;1999.90;999.90;;;;;;;9.73;33.44;100798.50;15410044;28;20050;-84
2022/04/02 10:53:25;;;;;;;1999.90;999.90;;;;;;;10.75;32.08;100811.13;15398865;28;20047;-84
2022/04/02 11:01:02;;;;;;;1999.90;999.90;;;;;;;10.06;33.85;100825.91;15396318;28;20054;-83
2022/04/02 11:08:37;;;;;;;1999.90;999.90;;;;;;;10.09;32.37;100812.13;15391885;28;20462;-82
2022/04/02 11:16:14;;;;;;;1999.90;999.90;;;;;;;9.90;33.63;100803.28;15412392;28;20048;-81
2022/04/02 11:23:57;;;;;;;1999.90;999.90;;;;;;;10.60;32.96;100815.25;15397217;28;20051;-81
2022/04/02 11:31:32;;;;;;;1999.90;999.90;;;;;;;9.66;34.55;100820.44;15402635;28;20213;-82
2022/04/02 11:39:11;;;;;;;1999.90;999.90;;;;;;;9.64;33.83;100817.16;15471751;28;20039;-81
2022/04/02 11:46:53;;;;;;;1999.90;999.90;;;;;;;9.39;34.45;100802.03;15476547;28;20039;-82
2022/04/02 11:54:27;;;;;;;1999.90;999.90;;;;;;;11.03;31.36;100817.13;15401141;28;20552;-82
2022/04/02 12:01:59;;;;;;;1999.90;999.90;;;;;;;10.20;33.06;100786.69;15410349;28;20050;-82
2022/04/02 12:09:33;;;;;;;1999.90;999.90;;;;;;;8.84;38.24;100807.19;15433551;28;20057;-82
2022/04/02 12:17:09;;;;;;;1999.90;999.90;;;;;;;8.35;39.96;100829.31;15399970;28;20121;-84
2022/04/02 12:24:47;;;;;;;1999.90;999.90;;;;;;;8.70;39.16;100815.63;15405356;28;20062;-81
2022/04/02 12:32:29;;;;;;;1999.90;999.90;;;;;;;10.10;37.17;100833.28;15419746;28;20596;-82
2022/04/02 12:40:17;;;;;;;1999.90;999.90;;;;;;;8.98;39.75;100835.75;15391208;28;20047;-82
2022/04/02 12:48:01;;;;;;;1999.90;999.90;;;;;;;7.61;43.53;100855.66;15448329;28;20042;-82
2022/04/02 12:55:35;;;;;;;1999.90;999.90;;;;;;;7.30;42.41;100853.53;15465654;28;20118;-85
2022/04/02 13:03:07;;;;;;;1999.90;999.90;;;;;;;7.06;41.82;100850.94;15447432;28;20043;-84
2022/04/02 13:10:45;;;;;;;1999.90;999.90;;;;;;;7.59;41.70;100866.28;15431393;28;20501;-84
2022/04/02 13:26:14;;;;;;;1999.90;999.90;;;;;;;8.23;42.25;100880.97;15410786;28;20055;-85
2022/04/02 13:34:08;;;;;;;1999.90;999.90;;;;;;;6.81;45.25;100890.25;15361986;29;20087;-82
2022/04/02 13:41:42;;;;;;;;;;;;;;;7.02;44.66;100887.94;15360062;29;20039;-83
2022/04/02 13:49:27;;;;;;;1999.90;999.90;;;;;;;6.54;42.92;100891.78;15375284;29;20012;-84
2022/04/02 13:57:02;;;;;;;1999.90;999.90;;;;;;;6.93;40.62;100880.31;15393847;29;20047;-81
2022/04/02 14:04:37;;;;;;;1999.90;999.90;;;;;;;7.41;39.67;100898.59;15444593;28;20125;-82
2022/04/02 14:12:11;;;;;;;1999.90;999.90;;;;;;;7.81;38.65;100889.44;15393303;28;20102;-83
2022/04/02 14:19:50;;;;;;;1999.90;999.90;;;;;;;7.95;39.57;100905.25;15424288;28;20097;-83
2022/04/02 14:27:51;;;;;;;1999.90;999.90;;;;;;;7.31;40.89;100915.44;15399953;28;20039;-82
2022/04/02 14:35:57;;;;;;;1999.90;999.90;;;;;;;6.94;41.50;100920.78;15398152;28;20051;-81
2022/04/02 14:44:19;;;;;;;1999.90;999.90;;;;;;;7.03;41.95;100920.91;15372314;28;20048;-82
2022/04/02 14:52:24;;;;;;;1999.90;999.90;;;;;;;7.17;40.11;100940.38;15398655;28;20046;-84
2022/04/02 15:00:35;;;;;;;1999.90;999.90;;;;;;;7.08;40.40;100914.44;15398466;28;20065;-82
2022/04/02 15:08:45;;;;;;;1999.90;999.90;;;;;;;7.52;41.11;100939.72;15453032;28;20129;-82
2022/04/02 15:16:28;;;;;;;1999.90;999.90;;;;;;;7.89;40.96;100918.41;15442972;28;20059;-84
2022/04/02 15:24:15;;;;;;;1999.90;999.90;;;;;;;7.12;41.60;100941.28;15445698;28;20107;-82
2022/04/02 15:32:01;;;;;;;1999.90;999.90;;;;;;;6.67;42.07;100945.66;15429182;28;20051;-83
2022/04/02 15:39:35;;;;;;;1999.90;999.90;;;;;;;6.86;41.64;100951.97;15391943;28;20069;-83
2022/04/02 15:47:41;;;;;;;1999.90;999.90;;;;;;;6.69;41.89;100948.97;15405287;28;20074;-84
2022/04/02 15:55:22;;;;;;;1999.90;999.90;;;;;;;7.05;41.96;100962.22;15409729;28;20074;-82
2022/04/02 16:02:56;;;;;;;1999.90;999.90;;;;;;;6.35;41.94;100971.34;15419777;28;20066;-81
2022/04/02 16:10:28;;;;;;;1999.90;999.90;;;;;;;6.53;42.52;100983.56;15397270;23;20482;-58
2022/04/02 16:18:32;;;;;;;1999.90;999.90;;;;;;;6.40;42.02;100987.09;15429280;28;20079;-60
2022/04/02 16:26:10;;;;;;;1999.90;999.90;;;;;;;6.38;43.74;100997.66;15407470;28;20054;-60
2022/04/02 16:33:49;;;;;;;1999.90;999.90;;;;;;;6.41;42.64;101008.97;15417650;28;20102;-58
2022/04/02 16:41:36;;;;;;;1999.90;999.90;;;;;;;6.70;43.24;101010.78;15418188;28;20058;-61
2022/04/02 16:49:10;;;;;;;1999.90;999.90;;;;;;;6.31;42.56;101017.41;15407535;28;20047;-60
2022/04/02 16:56:43;;;;;;;;;;;;;;;6.33;42.46;101029.03;15395398;28;20051;-61
2022/04/02 17:04:22;;;;;;;1999.90;999.90;;;;;;;6.29;42.80;101047.38;15431394;28;19922;-60
2022/04/02 17:11:55;;;;;;;1999.90;999.90;;;;;;;5.96;42.83;101049.16;15435717;28;20050;-61
2022/04/02 17:19:34;;;;;;;1999.90;999.90;;;;;;;5.93;43.68;101055.28;15435512;28;20123;-61
2022/04/02 17:27:16;;;;;;;1999.90;999.90;;;;;;;5.97;43.19;101070.22;15434737;28;20046;-60
2022/04/02 17:35:02;;;;;;;1999.90;999.90;;;;;;;5.89;44.32;101087.44;15434056;28;20055;-59
2022/04/02 17:42:37;;;;;;;1999.90;999.90;;;;;;;5.87;44.28;101098.81;15434750;28;20105;-61
2022/04/02 17:50:15;;;;;;;1999.90;999.90;;;;;;;5.25;44.39;101105.97;15425477;28;20400;-60
2022/04/02 17:58:08;;;;;;;1999.90;999.90;;;;;;;5.13;45.07;101113.81;15405620;28;20058;-61
2022/04/02 18:05:45;;;;;;;1999.90;999.90;;;;;;;5.17;44.96;101128.72;15413959;28;20142;-60
2022/04/02 18:13:17;;;;;;;1999.90;999.90;;;;;;;5.11;45.16;101130.72;15407938;28;20130;-60
2022/04/02 18:20:55;;;;;;;1999.90;999.90;;;;;;;4.91;45.81;101139.94;15402694;28;20500;-61
2022/04/02 18:28:41;;;;;;;1999.90;999.90;;;;;;;4.67;46.00;101163.00;15374593;28;20114;-62
2022/04/02 18:36:34;;;;;;;1999.90;999.90;;;;;;;4.54;45.77;101169.97;15406236;28;20091;-60
2022/04/02 18:44:24;;;;;;;1999.90;999.90;;;;;;;4.44;45.57;101170.81;15374445;28;20098;-62
2022/04/02 18:52:08;;;;;;;1999.90;999.90;;;;;;;4.48;45.01;101199.56;15385159;29;20572;-62
2022/04/02 18:59:42;;;;;;;1999.90;999.90;;;;;;;4.15;45.02;101191.88;15408753;28;20039;-59
2022/04/02 19:07:25;;;;;;;1999.90;999.90;;;;;;;4.23;45.26;101202.38;15410206;28;20419;-59
2022/04/02 19:15:07;;;;;;;1999.90;999.90;;;;;;;3.94;45.00;101211.25;15392342;28;20086;-60
2022/04/02 19:22:54;;;;;;;1999.90;999.90;;;;;;;4.21;44.88;101221.16;15416665;28;20071;-61
2022/04/02 19:30:43;;;;;;;1999.90;999.90;;;;;;;3.91;45.21;101241.34;15422547;28;20412;-59
2022/04/02 19:38:36;;;;;;;1999.90;999.90;;;;;;;3.95;45.71;101239.69;15395653;28;20385;-60
2022/04/02 19:46:26;;;;;;;1999.90;999.90;;;;;;;3.72;45.83;101247.41;15406015;28;20043;-61
2022/04/02 19:54:05;;;;;;;1999.90;999.90;;;;;;;3.62;46.21;101249.31;15431359;28;20130;-62
2022/04/02 20:01:45;;;;;;;1999.90;999.90;;;;;;;3.78;46.18;101259.28;15407590;28;20581;-63
2022/04/02 20:09:23;;;;;;;1999.90;999.90;;;;;;;3.59;46.51;101255.41;15414033;28;20052;-62
2022/04/02 20:17:12;;;;;;;1999.90;999.90;;;;;;;3.52;46.71;101261.16;15449205;28;20055;-60
2022/04/02 20:25:06;;;;;;;1999.90;999.90;;;;;;;3.64;47.00;101263.66;15410684;28;20073;-62
2022/04/02 20:32:56;;;;;;;1999.90;999.90;;;;;;;3.02;47.86;101279.22;15406359;28;20131;-60
2022/04/02 20:40:33;;;;;;;1999.90;999.90;;;;;;;3.31;47.19;101279.59;15414146;28;20094;-62
2022/04/02 20:48:13;;;;;;;1999.90;999.90;;;;;;;3.13;47.56;101280.94;15391973;28;20047;-62
2022/04/02 20:55:58;;;;;;;1999.90;999.90;;;;;;;3.18;47.86;101280.94;15394052;28;20499;-58
2022/04/02 21:03:44;;;;;;;1999.90;999.90;;;;;;;2.92;48.07;101286.59;15396261;28;20057;-62
2022/04/02 21:11:26;;;;;;;1999.90;999.90;;;;;;;3.09;48.23;101284.47;15413319;28;20047;-59
2022/04/02 21:19:17;;;;;;;1999.90;999.90;;;;;;;2.94;48.47;101298.22;15391667;28;20408;-57
2022/04/02 21:26:59;;;;;;;1999.90;999.90;;;;;;;3.00;48.35;101311.72;15395852;28;20043;-62
2022/04/02 21:34:35;;;;;;;1999.90;999.90;;;;;;;2.94;48.84;101312.00;15392202;28;20160;-62
2022/04/02 21:42:31;;;;;;;1999.90;999.90;;;;;;;2.94;48.82;101321.09;15417791;28;20057;-58
2022/04/02 21:50:15;;;;;;;1999.90;999.90;;;;;;;2.65;49.00;101320.63;15433079;28;20089;-60
2022/04/02 21:58:03;;;;;;;1999.90;999.90;;;;;;;2.77;49.00;101336.97;15434341;28;20043;-60
2022/04/02 22:05:44;;;;;;;1999.90;999.90;;;;;;;2.41;49.76;101344.16;15423888;28;20106;-59
2022/04/02 22:13:32;;;;;;;1999.90;999.90;;;;;;;2.26;50.92;101356.69;15400719;28;20050;-60
2022/04/02 22:21:25;;;;;;;1999.90;999.90;;;;;;;2.25;50.86;101356.97;15403116;23;20054;-73
2022/04/02 22:29:19;;;;;;;1999.90;999.90;;;;;;;2.36;50.80;101358.72;15434422;28;20503;-73
2022/04/02 22:37:10;;;;;;;;;;;;;;;2.28;50.77;101356.44;15439179;28;20070;-74
2022/04/02 22:44:59;;;;;;;1999.90;999.90;;;;;;;1.89;52.21;101366.81;15370446;29;19969;-73
2022/04/02 22:52:38;;;;;;;1999.90;999.90;;;;;;;2.01;51.40;101370.25;15336858;29;20047;-74
2022/04/02 23:00:22;;;;;;;1999.90;999.90;;;;;;;1.99;51.74;101367.75;15342062;29;20500;-74
2022/04/02 23:08:07;;;;;;;1999.90;999.90;;;;;;;2.02;51.86;101374.66;15326634;29;20111;-74
2022/04/02 23:15:49;;;;;;;1999.90;999.90;;;;;;;1.92;51.77;101391.88;15377057;29;20215;-73
2022/04/02 23:23:33;;;;;;;1999.90;999.90;;;;;;;2.12;51.72;101388.53;15365167;29;20050;-74
2022/04/02 23:31:13;;;;;;;1999.90;999.90;;;;;;;2.07;52.82;101382.13;15320653;29;20081;-74
2022/04/02 23:38:48;;;;;;;1999.90;999.90;;;;;;;1.79;53.61;101385.97;15328800;29;20048;-74
2022/04/02 23:46:38;;;;;;;1999.90;999.90;;;;;;;1.91;53.46;101381.97;15324392;29;20080;-74
2022/04/02 23:54:30;;;;;;;1999.90;999.90;;;;;;;1.83;54.08;101381.59;15323702;29;20051;-74
